Portada
METAR-TAF:

METAR-TAF

Aeropuertos :

Aeropuerto Internacional de Gabès-Matmata

Gabès, Túnez

latitud: 33-53N, longitud: 010-06E, altitud: 4 m

Observación

El informe se hizo hace 24 minutos, a las 12:00 UTC
Viento 8 kt del noreste, variando entre norte y este
Temperatura 36°C
Humedad 22%
Presión 1016 hPa
Visibilidad 10 km o más
sin nubes por debajo de 1500 m y sin presencia de cumulonimbus.

METAR: DTTG 191200Z 04008KT 360V080 CAVOK 36/11 Q1016 SIROCCO

Hora: 13:24 (12:24 UTC)

Pronóstico

El informe se hizo hace 3 horas y 24 minutos, a las 09:00 UTC
Pronóstico válido del 19 a las 10 UTC al 19 a las 19 UTC
Viento 8 kt del este-noreste
Visibilidad 10 km o más
sin nubes por debajo de 1500 m y sin presencia de cumulonimbus.

TAF: DTTG 190900Z 1910/1919 07008KT CAVOK

Observaciones y pronósticos meteorológicos de más de 4000 aeropuertos (mensajes METAR y TAF).

Los puntos amarillos y rojos representan las estaciones disponibles.

Ponga el ratón en el punto deseado para ver el nombre de la estación.

Haga clic para ver las observaciones y los pronósticos meteorológicos.

Para cambiar el mapa : haga clic en los botones verdes con una cruz de color negro para hacer un zoom, en el botón verde con un guión para alejar o en las flechas verdes para mapas adyacentes.


METAR-TAF: